Terminal Aerodrome Forecast
Issued by NWS Wichita, KS

Home | Current Version | Previous Version | Text Only | Print | Product List | Glossary On
Versions: 1 2 3 4 5 6 7 8 9 10 11 12 13 14 15
094
FTUS43 KICT 091129
TAFICT
TAF
KICT 091129Z 0912/1012 33010KT P6SM SCT070
     FM091600 34018G25KT P6SM SCT070
     FM092300 34013KT P6SM SCT070
     FM100200 34006KT P6SM SCT070
     FM100600 20005KT P6SM SCT070=

USA.gov is the U.S. government's official web portal to all federal, state and local government web resources and services.